createdAt,value
2022-11-03T00:01:38.496Z,4.93
2022-11-03T00:04:07.358Z,5.57
2022-11-03T00:06:36.142Z,5.03
2022-11-03T00:09:06.795Z,5.00
2022-11-03T00:11:36.144Z,7.50
2022-11-03T00:14:06.740Z,6.83
2022-11-03T00:16:36.786Z,5.53
2022-11-03T00:19:04.799Z,5.17
2022-11-03T00:21:33.093Z,4.90
2022-11-03T00:24:02.551Z,4.77
2022-11-03T00:26:31.759Z,4.17
2022-11-03T00:29:01.632Z,3.57
2022-11-03T00:31:31.363Z,3.50
2022-11-03T00:34:01.511Z,3.70
2022-11-03T00:36:31.299Z,3.50
2022-11-03T00:38:59.860Z,3.20
2022-11-03T00:41:28.505Z,3.57
2022-11-03T00:43:57.525Z,3.20
2022-11-03T00:46:26.896Z,2.50
2022-11-03T00:48:54.819Z,2.70
2022-11-03T00:51:25.934Z,2.60
2022-11-03T00:53:55.481Z,2.87
2022-11-03T00:56:25.147Z,2.63
2022-11-03T00:58:54.216Z,2.80
2022-11-03T01:01:24.098Z,2.40
2022-11-03T01:04:08.683Z,2.43
2022-11-03T01:06:53.561Z,2.40
2022-11-03T01:09:24.093Z,3.00
2022-11-03T01:11:57.929Z,2.60
2022-11-03T01:14:27.206Z,2.53
2022-11-03T01:16:55.156Z,2.40
2022-11-03T01:19:23.750Z,2.43
2022-11-03T01:21:53.239Z,2.73
2022-11-03T01:24:21.711Z,2.63
2022-11-03T01:26:49.672Z,2.77
2022-11-03T01:29:18.012Z,2.70
2022-11-03T01:31:46.080Z,2.50
2022-11-03T01:34:16.769Z,2.60
2022-11-03T01:36:45.852Z,2.80
2022-11-03T01:39:17.155Z,2.70
2022-11-03T01:41:47.021Z,2.83
2022-11-03T01:44:31.058Z,2.90
2022-11-03T01:47:20.474Z,2.63
2022-11-03T01:49:50.920Z,3.17
2022-11-03T01:52:24.143Z,3.00
2022-11-03T01:54:59.391Z,3.30
2022-11-03T01:57:33.029Z,3.00
2022-11-03T02:00:02.519Z,3.17
2022-11-03T02:02:41.324Z,3.03
2022-11-03T02:05:11.613Z,3.03
2022-11-03T02:07:43.513Z,2.70
2022-11-03T02:10:12.990Z,2.80
2022-11-03T02:12:41.204Z,2.57
2022-11-03T02:15:12.496Z,2.63
2022-11-03T02:17:42.428Z,2.70
2022-11-03T02:20:14.525Z,2.90
2022-11-03T02:23:15.420Z,2.13
2022-11-03T02:25:49.439Z,2.53
2022-11-03T02:28:20.006Z,2.53
2022-11-03T02:34:06.030Z,2.10
2022-11-03T02:36:38.895Z,2.40
2022-11-03T02:39:10.859Z,2.50
2022-11-03T02:41:41.486Z,2.47
2022-11-03T02:44:16.006Z,2.40
2022-11-03T02:46:45.347Z,1.97
2022-11-03T02:49:13.475Z,2.43
2022-11-03T02:51:41.815Z,2.87
2022-11-03T02:54:15.179Z,2.40
2022-11-03T02:56:50.083Z,3.17
2022-11-03T02:59:22.586Z,2.77
2022-11-03T03:01:56.848Z,2.50
2022-11-03T03:04:29.742Z,2.30
2022-11-03T03:07:02.987Z,3.17
2022-11-03T03:09:35.296Z,2.47
2022-11-03T03:12:07.684Z,2.27
2022-11-03T03:14:39.838Z,2.70
2022-11-03T03:17:14.074Z,2.73
2022-11-03T03:19:50.197Z,2.53
2022-11-03T03:22:25.417Z,3.00
2022-11-03T03:24:58.525Z,2.50
2022-11-03T03:27:30.847Z,3.10
2022-11-03T03:30:02.509Z,2.40
2022-11-03T03:32:37.766Z,3.00
2022-11-03T03:35:09.713Z,2.70
2022-11-03T03:37:40.334Z,2.13
2022-11-03T03:40:12.651Z,2.60
2022-11-03T03:42:44.725Z,2.83
2022-11-03T03:45:14.467Z,3.10
2022-11-03T03:47:42.396Z,2.50
2022-11-03T03:50:10.686Z,2.37
2022-11-03T03:52:39.065Z,2.90
2022-11-03T03:55:13.625Z,2.40
2022-11-03T03:57:43.795Z,2.67
2022-11-03T04:00:16.004Z,2.80
2022-11-03T04:02:44.078Z,3.03
2022-11-03T04:05:12.012Z,2.90
2022-11-03T04:07:49.070Z,2.90
2022-11-03T04:10:18.418Z,2.97
2022-11-03T04:13:06.163Z,2.83
2022-11-03T04:15:51.878Z,3.03
2022-11-03T04:18:38.748Z,4.53
2022-11-03T04:21:24.848Z,4.10
2022-11-03T04:23:55.114Z,3.10
2022-11-03T04:26:23.957Z,3.33
2022-11-03T04:28:54.254Z,2.93
2022-11-03T04:31:22.630Z,4.10
2022-11-03T04:33:50.773Z,2.60
2022-11-03T04:36:20.942Z,3.90
2022-11-03T04:38:49.701Z,3.77
2022-11-03T04:41:21.055Z,2.63
2022-11-03T04:43:51.030Z,3.20
2022-11-03T04:46:26.953Z,3.00
2022-11-03T04:48:56.227Z,2.63
2022-11-03T04:51:27.160Z,3.03
2022-11-03T04:53:56.930Z,2.70
2022-11-03T04:56:26.104Z,2.70
2022-11-03T04:58:54.816Z,2.90
2022-11-03T05:01:25.146Z,3.30
2022-11-03T05:03:55.153Z,3.20
2022-11-03T05:06:25.033Z,3.83
2022-11-03T05:08:57.274Z,3.27
2022-11-03T05:11:32.079Z,2.60
2022-11-03T05:14:03.501Z,2.87
2022-11-03T05:16:32.816Z,3.20
2022-11-03T05:19:01.159Z,2.93
2022-11-03T05:21:29.690Z,3.50
2022-11-03T05:24:03.671Z,3.40
2022-11-03T05:26:35.454Z,3.40
2022-11-03T05:29:05.387Z,4.23
2022-11-03T05:31:37.911Z,3.67
2022-11-03T05:34:29.371Z,4.27
2022-11-03T05:36:59.626Z,3.27
2022-11-03T05:39:31.057Z,3.83
2022-11-03T05:42:00.470Z,4.70
2022-11-03T05:44:36.815Z,3.40
2022-11-03T05:47:14.200Z,3.43
2022-11-03T05:49:42.124Z,3.20
2022-11-03T05:52:20.448Z,3.20
2022-11-03T05:54:49.050Z,4.93
2022-11-03T05:57:19.029Z,5.30
2022-11-03T05:59:48.654Z,5.20
2022-11-03T06:02:34.199Z,5.10
2022-11-03T06:05:03.473Z,5.60
2022-11-03T06:07:32.843Z,4.60
2022-11-03T06:10:00.803Z,5.00
2022-11-03T06:12:31.462Z,4.50
2022-11-03T06:14:59.901Z,4.43
2022-11-03T06:17:29.976Z,4.80
2022-11-03T06:20:00.629Z,3.93
2022-11-03T06:22:31.077Z,4.40
2022-11-03T06:25:02.754Z,4.73
2022-11-03T06:27:33.192Z,4.00
2022-11-03T06:30:04.321Z,4.03
2022-11-03T06:32:34.390Z,5.50
2022-11-03T06:35:02.379Z,3.93
2022-11-03T06:37:33.672Z,4.57
2022-11-03T06:40:24.360Z,4.07
2022-11-03T06:42:54.053Z,4.83
2022-11-03T06:45:24.997Z,4.43
2022-11-03T06:47:55.661Z,4.10
2022-11-03T06:50:26.796Z,4.67
2022-11-03T06:52:56.975Z,4.70
2022-11-03T06:55:27.597Z,4.60
2022-11-03T06:57:59.726Z,4.60
2022-11-03T07:00:35.390Z,4.70
2022-11-03T07:03:11.413Z,4.97
2022-11-03T07:05:40.308Z,4.90
2022-11-03T07:08:20.862Z,5.03
2022-11-03T07:10:51.040Z,5.10
2022-11-03T07:13:23.533Z,4.83
2022-11-03T07:15:52.192Z,4.93
2022-11-03T07:18:25.035Z,4.73
2022-11-03T07:20:54.842Z,5.27
2022-11-03T07:23:25.657Z,5.63
2022-11-03T07:25:55.496Z,4.80
2022-11-03T07:28:27.914Z,5.23
2022-11-03T07:30:57.106Z,4.83
2022-11-03T07:33:29.190Z,4.77
2022-11-03T07:36:14.999Z,5.40
2022-11-03T07:38:44.760Z,5.00
2022-11-03T07:41:19.357Z,4.77
2022-11-03T07:43:54.425Z,5.47
2022-11-03T07:46:23.915Z,6.43
2022-11-03T07:48:55.270Z,5.30
2022-11-03T07:51:25.629Z,6.10
2022-11-03T07:53:56.342Z,7.33
2022-11-03T07:56:27.634Z,6.87
2022-11-03T07:59:01.170Z,8.07
2022-11-03T08:01:31.925Z,7.80
2022-11-03T08:04:05.313Z,8.43
2022-11-03T08:06:33.702Z,9.27
2022-11-03T08:09:01.668Z,8.27
2022-11-03T08:11:30.101Z,7.00
2022-11-03T08:13:58.562Z,6.00
2022-11-03T08:16:26.842Z,5.83
2022-11-03T08:18:55.092Z,5.60
2022-11-03T08:21:32.894Z,6.33
2022-11-03T08:24:00.893Z,6.10
2022-11-03T08:26:29.610Z,5.03
2022-11-03T08:28:58.406Z,6.53
2022-11-03T08:31:26.455Z,5.87
2022-11-03T08:33:54.434Z,6.20
2022-11-03T08:36:22.500Z,5.20
2022-11-03T08:38:51.843Z,5.23
2022-11-03T08:41:19.697Z,5.83
2022-11-03T08:43:47.915Z,6.53
2022-11-03T08:46:18.017Z,5.03
2022-11-03T08:48:47.120Z,4.80
2022-11-03T08:51:15.982Z,4.97
2022-11-03T08:53:44.922Z,4.97
2022-11-03T08:56:17.010Z,4.30
2022-11-03T08:58:47.461Z,4.47
2022-11-03T09:01:15.911Z,4.23
2022-11-03T09:03:44.172Z,5.07
2022-11-03T09:06:12.145Z,3.90
2022-11-03T09:11:29.461Z,4.20
2022-11-03T09:13:57.925Z,4.63
2022-11-03T09:16:27.391Z,4.00
2022-11-03T09:18:55.468Z,3.63
2022-11-03T09:21:23.531Z,4.03
2022-11-03T09:23:51.558Z,3.70
2022-11-03T09:26:19.622Z,3.80
2022-11-03T09:28:49.606Z,4.23
2022-11-03T09:31:17.786Z,3.77
2022-11-03T09:33:45.836Z,4.43
2022-11-03T09:36:13.839Z,3.73
2022-11-03T09:38:42.284Z,4.13
2022-11-03T09:41:26.451Z,4.27
2022-11-03T09:44:04.851Z,4.33
2022-11-03T09:46:33.156Z,4.20
2022-11-03T09:49:01.195Z,4.20
2022-11-03T09:51:29.988Z,5.03
2022-11-03T09:54:00.912Z,4.20
2022-11-03T09:56:29.147Z,4.10
2022-11-03T09:58:57.235Z,4.23
2022-11-03T10:01:27.432Z,3.90
2022-11-03T10:04:00.749Z,4.07
2022-11-03T10:06:29.273Z,4.20
2022-11-03T10:08:57.483Z,3.67
2022-11-03T10:11:25.501Z,4.63
2022-11-03T10:13:55.871Z,4.03
2022-11-03T10:16:26.973Z,4.73
2022-11-03T10:18:55.294Z,10.67
2022-11-03T10:21:28.641Z,8.17
2022-11-03T10:23:56.580Z,10.20
2022-11-03T10:26:24.532Z,22.43
2022-11-03T10:29:00.483Z,17.40
2022-11-03T10:31:37.949Z,14.13
2022-11-03T10:34:07.713Z,6.53
2022-11-03T10:36:36.373Z,6.87
2022-11-03T10:39:26.645Z,8.33
2022-11-03T10:41:59.657Z,6.53
2022-11-03T10:44:28.828Z,12.40
2022-11-03T10:47:00.387Z,19.50
2022-11-03T10:49:30.378Z,8.30
2022-11-03T10:52:09.277Z,6.20
2022-11-03T10:54:38.149Z,4.87
2022-11-03T10:57:06.374Z,4.63
2022-11-03T10:59:38.227Z,4.80
2022-11-03T11:02:18.564Z,5.33
2022-11-03T11:04:49.254Z,5.07
2022-11-03T11:07:23.298Z,4.40
2022-11-03T11:09:51.508Z,4.93
2022-11-03T11:12:22.334Z,5.33
2022-11-03T11:14:55.924Z,5.13
2022-11-03T11:17:49.592Z,4.30
2022-11-03T11:20:35.595Z,4.23
2022-11-03T11:23:49.852Z,4.70
2022-11-03T11:26:35.451Z,3.70
2022-11-03T11:29:43.362Z,3.23
2022-11-03T11:32:47.662Z,4.00
2022-11-03T11:35:38.161Z,3.33
2022-11-03T11:38:42.199Z,3.67
2022-11-03T11:41:10.133Z,3.43
2022-11-03T11:43:38.186Z,3.20
2022-11-03T11:46:42.450Z,3.33
2022-11-03T11:49:20.310Z,3.40
2022-11-03T11:51:49.738Z,3.50
2022-11-03T11:54:21.367Z,2.90
2022-11-03T11:56:52.869Z,3.07
2022-11-03T11:59:25.632Z,4.50
2022-11-03T12:01:56.925Z,4.97
2022-11-03T12:04:29.211Z,4.60
2022-11-03T12:06:58.666Z,5.43
2022-11-03T12:09:28.614Z,5.60
2022-11-03T12:12:00.728Z,5.20
2022-11-03T12:14:37.758Z,4.70
2022-11-03T12:17:32.864Z,7.67
2022-11-03T12:20:22.514Z,14.13
2022-11-03T12:22:51.946Z,8.47
2022-11-03T12:25:37.148Z,6.23
2022-11-03T12:28:05.550Z,4.70
2022-11-03T12:30:39.480Z,5.73
2022-11-03T12:33:08.212Z,8.57
2022-11-03T12:35:36.374Z,6.07
2022-11-03T12:38:05.635Z,6.57
2022-11-03T12:40:33.897Z,4.90
2022-11-03T12:43:02.178Z,4.80
2022-11-03T12:45:30.379Z,4.20
2022-11-03T12:47:58.963Z,5.63
2022-11-03T12:50:27.463Z,13.57
2022-11-03T12:52:57.052Z,10.43
2022-11-03T12:58:00.499Z,5.07
2022-11-03T13:00:28.486Z,6.10
2022-11-03T13:02:56.680Z,4.20
2022-11-03T13:05:25.823Z,4.13
2022-11-03T13:07:54.249Z,4.00
2022-11-03T13:10:22.285Z,4.47
2022-11-03T13:12:51.566Z,3.67
2022-11-03T13:15:19.724Z,3.90
2022-11-03T13:20:36.252Z,4.37
2022-11-03T13:23:04.980Z,4.40
2022-11-03T13:25:33.315Z,4.20
2022-11-03T13:28:04.082Z,3.30
2022-11-03T13:30:33.667Z,4.47
2022-11-03T13:33:02.364Z,4.30
2022-11-03T13:35:30.462Z,3.83
2022-11-03T13:37:58.450Z,3.70
2022-11-03T13:40:54.836Z,4.03
2022-11-03T13:43:15.669Z,4.00
2022-11-03T13:45:43.629Z,3.43
2022-11-03T13:51:00.277Z,3.23
2022-11-03T13:56:21.402Z,3.60
2022-11-03T14:01:41.471Z,2.83
2022-11-03T14:06:58.376Z,2.90
2022-11-03T14:09:26.497Z,3.20
2022-11-03T14:12:17.122Z,2.50
2022-11-03T14:14:46.441Z,2.87
2022-11-03T14:17:14.571Z,3.37
2022-11-03T14:19:46.179Z,3.17
2022-11-03T14:22:18.512Z,3.67
2022-11-03T14:24:46.479Z,3.80
2022-11-03T14:27:15.786Z,6.30
2022-11-03T14:29:44.297Z,16.57
2022-11-03T14:32:13.790Z,14.33
2022-11-03T14:34:41.853Z,4.63
2022-11-03T14:37:10.017Z,3.50
2022-11-03T14:39:38.592Z,3.40
2022-11-03T14:42:06.590Z,3.37
2022-11-03T14:44:35.982Z,3.17
2022-11-03T14:47:05.664Z,3.33
2022-11-03T14:49:36.508Z,3.30
2022-11-03T14:52:07.228Z,4.30
2022-11-03T14:54:36.075Z,3.90
2022-11-03T14:57:04.856Z,3.53
2022-11-03T14:59:33.223Z,4.30
2022-11-03T15:02:01.649Z,3.50
2022-11-03T15:04:29.792Z,4.23
2022-11-03T15:06:59.107Z,3.90
2022-11-03T15:09:27.104Z,3.37
2022-11-03T15:11:55.252Z,4.13
2022-11-03T15:14:23.149Z,4.07
2022-11-03T15:16:51.139Z,3.47
2022-11-03T15:19:18.986Z,3.23
2022-11-03T15:21:46.944Z,4.17
2022-11-03T15:27:04.405Z,4.03
2022-11-03T15:29:32.363Z,4.20
2022-11-03T15:32:00.883Z,3.90
2022-11-03T15:34:29.668Z,4.30
2022-11-03T15:36:57.650Z,3.83
2022-11-03T15:39:29.656Z,4.83
2022-11-03T15:41:57.596Z,4.33
2022-11-03T15:44:25.554Z,4.00
2022-11-03T15:46:53.397Z,4.37
2022-11-03T15:49:21.378Z,3.97
2022-11-03T15:51:49.311Z,3.77
2022-11-03T15:54:17.706Z,3.63
2022-11-03T15:56:47.156Z,3.60
2022-11-03T15:59:15.024Z,4.03
2022-11-03T16:01:43.099Z,5.00
2022-11-03T16:04:11.339Z,4.40
2022-11-03T16:07:07.303Z,4.10
2022-11-03T16:09:27.135Z,4.23
2022-11-03T16:11:56.483Z,4.00
2022-11-03T16:14:24.450Z,4.20
2022-11-03T16:16:52.519Z,4.33
2022-11-03T16:19:20.471Z,4.13
2022-11-03T16:21:48.489Z,4.63
2022-11-03T16:24:16.414Z,5.13
2022-11-03T16:26:44.414Z,4.87
2022-11-03T16:29:13.819Z,4.60
2022-11-03T16:31:41.751Z,4.23
2022-11-03T16:34:10.018Z,4.27
2022-11-03T16:36:37.972Z,7.73
2022-11-03T16:39:05.870Z,15.10
2022-11-03T16:41:33.854Z,18.87
2022-11-03T16:44:01.710Z,15.27
2022-11-03T16:46:31.139Z,6.80
2022-11-03T16:51:28.290Z,5.67
2022-11-03T16:53:58.182Z,5.30
2022-11-03T16:56:26.071Z,14.23
2022-11-03T16:58:54.048Z,8.43
2022-11-03T17:01:22.061Z,7.50
2022-11-03T17:03:52.400Z,7.23
2022-11-03T17:06:20.551Z,22.47
2022-11-03T17:08:53.265Z,12.87
2022-11-03T17:11:35.873Z,10.97
2022-11-03T17:14:06.376Z,9.53
2022-11-03T17:16:34.559Z,8.50
2022-11-03T17:19:04.375Z,5.47
2022-11-03T17:21:32.265Z,6.27
2022-11-03T17:24:00.337Z,5.43
2022-11-03T17:26:42.915Z,6.03
2022-11-03T17:29:18.485Z,12.73
2022-11-03T17:31:46.572Z,13.13
2022-11-03T17:34:17.827Z,6.87
2022-11-03T17:36:45.944Z,6.07
2022-11-03T17:39:17.240Z,5.23
2022-11-03T17:41:45.307Z,5.67
2022-11-03T17:44:14.639Z,5.53
2022-11-03T17:46:42.650Z,5.97
2022-11-03T17:49:10.820Z,5.87
2022-11-03T17:51:43.976Z,6.47
2022-11-03T17:54:17.881Z,6.23
2022-11-03T17:56:46.231Z,5.83
2022-11-03T17:59:16.411Z,5.50
2022-11-03T18:01:48.384Z,5.73
2022-11-03T18:04:16.555Z,5.57
2022-11-03T18:06:48.788Z,6.67
2022-11-03T18:09:17.223Z,7.63
2022-11-03T18:12:03.259Z,10.03
2022-11-03T18:14:31.404Z,9.10
2022-11-03T18:16:59.821Z,10.40
2022-11-03T18:19:28.013Z,16.73
2022-11-03T18:21:57.470Z,15.30
2022-11-03T18:24:26.825Z,7.93
2022-11-03T18:26:55.242Z,8.83
2022-11-03T18:29:23.239Z,7.50
2022-11-03T18:31:51.294Z,6.57
2022-11-03T18:34:23.261Z,6.63
2022-11-03T18:36:52.598Z,7.80
2022-11-03T18:39:24.367Z,6.47
2022-11-03T18:41:52.458Z,5.80
2022-11-03T18:44:22.707Z,5.37
2022-11-03T18:46:52.370Z,9.63
2022-11-03T18:49:20.620Z,11.00
2022-11-03T18:51:51.104Z,8.23
2022-11-03T18:54:24.208Z,8.17
2022-11-03T18:56:53.963Z,9.00
2022-11-03T18:59:25.767Z,6.43
2022-11-03T19:01:54.347Z,6.50
2022-11-03T19:04:22.482Z,6.53
2022-11-03T19:06:52.241Z,7.80
2022-11-03T19:09:24.716Z,8.83
2022-11-03T19:11:55.626Z,8.10
2022-11-03T19:14:27.272Z,6.20
2022-11-03T19:19:45.261Z,6.40
2022-11-03T19:22:14.886Z,7.30
2022-11-03T19:24:44.816Z,6.63
2022-11-03T19:27:18.010Z,8.20
2022-11-03T19:29:47.951Z,5.50
2022-11-03T19:32:21.942Z,6.30
2022-11-03T19:34:56.309Z,9.50
2022-11-03T19:37:24.368Z,8.90
2022-11-03T19:39:53.991Z,6.73
2022-11-03T19:42:33.125Z,6.50
2022-11-03T19:45:02.549Z,6.47
2022-11-03T19:47:34.716Z,8.30
2022-11-03T19:50:04.405Z,8.53
2022-11-03T19:52:33.063Z,7.10
2022-11-03T19:55:05.636Z,7.93
2022-11-03T19:57:34.100Z,8.50
2022-11-03T20:00:03.178Z,7.50
2022-11-03T20:02:35.981Z,7.13
2022-11-03T20:05:04.352Z,7.57
2022-11-03T20:07:32.416Z,7.87
2022-11-03T20:10:02.582Z,7.20
2022-11-03T20:12:32.358Z,6.80
2022-11-03T20:15:00.393Z,6.00
2022-11-03T20:17:28.640Z,7.00
2022-11-03T20:19:56.557Z,6.97
2022-11-03T20:22:29.142Z,6.87
2022-11-03T20:25:00.384Z,5.83
2022-11-03T20:27:28.537Z,6.50
2022-11-03T20:29:57.847Z,6.07
2022-11-03T20:32:25.779Z,6.70
2022-11-03T20:34:53.689Z,6.53
2022-11-03T20:37:21.798Z,7.03
2022-11-03T20:39:50.156Z,7.23
2022-11-03T20:42:21.913Z,7.23
2022-11-03T20:44:50.233Z,7.20
2022-11-03T20:47:20.960Z,6.63
2022-11-03T20:49:49.059Z,7.27
2022-11-03T20:52:17.467Z,6.30
2022-11-03T20:54:45.765Z,7.87
2022-11-03T20:57:14.394Z,7.50
2022-11-03T20:59:42.369Z,8.37
2022-11-03T21:02:14.467Z,10.00
2022-11-03T21:04:44.096Z,10.07
2022-11-03T21:07:13.766Z,14.30
2022-11-03T21:09:41.977Z,9.87
2022-11-03T21:12:13.887Z,8.37
2022-11-03T21:15:05.125Z,8.33
2022-11-03T21:17:50.827Z,8.17
2022-11-03T21:20:20.125Z,7.00
2022-11-03T21:22:52.899Z,7.10
2022-11-03T21:25:24.398Z,7.63
2022-11-03T21:27:53.705Z,7.10
2022-11-03T21:30:21.869Z,7.20
2022-11-03T21:32:49.793Z,6.70
2022-11-03T21:35:20.565Z,6.50
2022-11-03T21:37:50.155Z,5.87
2022-11-03T21:40:18.708Z,5.77
2022-11-03T21:43:04.395Z,5.73
2022-11-03T21:45:32.365Z,7.07
2022-11-03T21:48:18.430Z,7.10
2022-11-03T21:50:46.536Z,7.63
2022-11-03T21:53:15.943Z,8.63
2022-11-03T21:55:43.940Z,7.57
2022-11-03T21:58:12.717Z,41.40
2022-11-03T22:00:40.659Z,11.67
2022-11-03T22:03:08.855Z,13.70
2022-11-03T22:05:37.407Z,8.60
2022-11-03T22:08:08.509Z,10.30
2022-11-03T22:10:40.630Z,10.83
2022-11-03T22:13:08.953Z,9.30
2022-11-03T22:15:54.541Z,8.57
2022-11-03T22:18:22.517Z,23.60
2022-11-03T22:21:08.045Z,9.77
2022-11-03T22:24:07.774Z,10.47
2022-11-03T22:26:54.518Z,16.17
2022-11-03T22:29:39.817Z,6.63
2022-11-03T22:32:14.178Z,6.63
2022-11-03T22:34:59.749Z,5.10
2022-11-03T22:37:27.673Z,8.23
2022-11-03T22:40:13.202Z,3.90
2022-11-03T22:42:59.792Z,3.97
2022-11-03T22:45:45.054Z,3.80
2022-11-03T22:48:13.700Z,4.23
2022-11-03T22:50:41.721Z,9.17
2022-11-03T22:53:23.562Z,9.57
2022-11-03T22:55:51.470Z,11.03
2022-11-03T22:58:20.826Z,6.27
2022-11-03T23:00:48.836Z,3.40
2022-11-03T23:03:18.083Z,1.87
2022-11-03T23:05:45.977Z,4.60
2022-11-03T23:08:14.056Z,1.80
2022-11-03T23:10:42.069Z,1.33
2022-11-03T23:13:10.389Z,1.47
2022-11-03T23:15:43.681Z,5.97
2022-11-03T23:18:29.294Z,2.93
2022-11-03T23:21:09.719Z,3.07
2022-11-03T23:23:56.896Z,2.40
2022-11-03T23:26:27.193Z,4.33
2022-11-03T23:28:55.309Z,4.10
2022-11-03T23:31:24.614Z,3.03
2022-11-03T23:33:52.611Z,2.90
2022-11-03T23:36:20.846Z,1.70
2022-11-03T23:38:48.913Z,1.40
2022-11-03T23:41:18.814Z,1.93
2022-11-03T23:43:47.482Z,2.37
2022-11-03T23:46:34.862Z,2.63
2022-11-03T23:49:04.865Z,2.60
2022-11-03T23:51:34.191Z,1.57
2022-11-03T23:54:03.304Z,2.43
2022-11-03T23:56:53.606Z,2.10
2022-11-03T23:59:21.755Z,1.27
